createdAt,value
2023-04-27T00:01:14.461Z,49.56
2023-04-27T00:03:42.083Z,50.48
2023-04-27T00:06:09.780Z,51.18
2023-04-27T00:08:37.005Z,51.26
2023-04-27T00:11:03.769Z,50.90
2023-04-27T00:13:30.509Z,49.94
2023-04-27T00:15:56.998Z,50.26
2023-04-27T00:18:23.540Z,50.22
2023-04-27T00:20:50.077Z,51.08
2023-04-27T00:23:16.757Z,51.00
2023-04-27T00:25:43.274Z,50.34
2023-04-27T00:28:10.925Z,50.14
2023-04-27T00:30:37.699Z,50.91
2023-04-27T00:33:04.306Z,50.44
2023-04-27T00:35:32.728Z,49.59
2023-04-27T00:37:59.229Z,51.27
2023-04-27T00:40:26.787Z,50.90
2023-04-27T00:42:53.349Z,50.44
2023-04-27T00:45:19.851Z,50.23
2023-04-27T00:47:46.406Z,51.05
2023-04-27T00:50:13.110Z,50.81
2023-04-27T00:52:39.740Z,50.79
2023-04-27T00:55:07.141Z,51.09
2023-04-27T00:57:34.237Z,50.63
2023-04-27T01:00:02.144Z,50.47
2023-04-27T01:02:30.062Z,50.30
2023-04-27T01:04:56.782Z,50.87
2023-04-27T01:07:26.728Z,51.19
2023-04-27T01:09:53.414Z,50.42
2023-04-27T01:12:19.882Z,50.25
2023-04-27T01:14:47.817Z,49.62
2023-04-27T01:17:14.538Z,50.12
2023-04-27T01:19:41.145Z,50.65
2023-04-27T01:22:07.771Z,51.45
2023-04-27T01:24:34.272Z,51.53
2023-04-27T01:27:01.928Z,50.19
2023-04-27T01:29:28.552Z,50.95
2023-04-27T01:31:55.081Z,51.07
2023-04-27T01:34:22.832Z,51.45
2023-04-27T01:36:49.353Z,51.44
2023-04-27T01:39:16.315Z,50.95
2023-04-27T01:41:42.868Z,51.12
2023-04-27T01:44:09.682Z,50.91
2023-04-27T01:46:36.328Z,50.87
2023-04-27T01:49:02.915Z,51.53
2023-04-27T01:51:29.421Z,51.33
2023-04-27T01:53:55.954Z,51.55
2023-04-27T01:56:22.473Z,51.52
2023-04-27T01:58:49.013Z,51.40
2023-04-27T02:01:15.724Z,51.76
2023-04-27T02:03:42.677Z,51.34
2023-04-27T02:06:09.425Z,51.50
2023-04-27T02:08:35.984Z,51.13
2023-04-27T02:11:02.479Z,51.28
2023-04-27T02:13:28.988Z,51.26
2023-04-27T02:15:56.165Z,52.24
2023-04-27T02:18:23.002Z,51.56
2023-04-27T02:20:49.497Z,51.94
2023-04-27T02:23:16.154Z,51.88
2023-04-27T02:25:46.516Z,51.63
2023-04-27T02:28:14.018Z,51.96
2023-04-27T02:30:40.948Z,51.73
2023-04-27T02:33:07.689Z,51.91
2023-04-27T02:35:34.270Z,52.06
2023-04-27T02:38:00.732Z,52.04
2023-04-27T02:40:27.252Z,52.33
2023-04-27T02:42:53.736Z,52.07
2023-04-27T02:45:20.345Z,52.04
2023-04-27T02:47:46.877Z,51.40
2023-04-27T02:50:13.782Z,52.46
2023-04-27T02:52:40.345Z,52.44
2023-04-27T02:55:07.122Z,51.89
2023-04-27T02:57:33.673Z,51.39
2023-04-27T03:00:00.470Z,51.72
2023-04-27T03:02:27.626Z,51.75
2023-04-27T03:04:57.496Z,51.86
2023-04-27T03:07:24.079Z,52.44
2023-04-27T03:09:50.595Z,51.92
2023-04-27T03:12:17.418Z,52.00
2023-04-27T03:14:43.948Z,52.87
2023-04-27T03:17:10.489Z,52.58
2023-04-27T03:19:37.079Z,52.62
2023-04-27T03:22:03.801Z,53.33
2023-04-27T03:24:30.887Z,52.61
2023-04-27T03:26:57.363Z,53.11
2023-04-27T03:29:23.902Z,53.23
2023-04-27T03:31:50.592Z,52.91
2023-04-27T03:34:17.158Z,53.83
2023-04-27T03:36:43.740Z,53.14
2023-04-27T03:39:10.219Z,53.28
2023-04-27T03:41:36.777Z,53.77
2023-04-27T03:44:03.335Z,53.21
2023-04-27T03:46:30.187Z,53.14
2023-04-27T03:48:56.847Z,53.05
2023-04-27T03:51:23.470Z,53.01
2023-04-27T03:53:50.404Z,52.28
2023-04-27T03:56:17.222Z,52.62
2023-04-27T03:58:44.569Z,52.97
2023-04-27T04:01:14.803Z,51.83
2023-04-27T04:03:41.517Z,52.26
2023-04-27T04:06:08.817Z,52.83
2023-04-27T04:08:35.366Z,53.14
2023-04-27T04:11:01.928Z,53.07
2023-04-27T04:13:28.962Z,52.52
2023-04-27T04:16:06.937Z,52.21
2023-04-27T04:18:34.705Z,52.71
2023-04-27T04:21:01.259Z,51.98
2023-04-27T04:23:27.857Z,52.37
2023-04-27T04:25:56.629Z,52.87
2023-04-27T04:28:24.999Z,52.89
2023-04-27T04:30:52.358Z,52.55
2023-04-27T04:33:18.963Z,52.32
2023-04-27T04:35:46.102Z,52.71
2023-04-27T04:38:12.942Z,52.82
2023-04-27T04:40:41.961Z,53.61
2023-04-27T04:43:09.556Z,53.67
2023-04-27T04:45:36.526Z,53.17
2023-04-27T04:48:04.063Z,52.75
2023-04-27T04:50:30.736Z,52.77
2023-04-27T04:52:57.251Z,52.80
2023-04-27T04:55:26.109Z,52.67
2023-04-27T04:57:52.683Z,52.64
2023-04-27T05:00:19.314Z,52.79
2023-04-27T05:02:45.967Z,51.85
2023-04-27T05:05:12.577Z,51.90
2023-04-27T05:07:39.271Z,51.81
2023-04-27T05:10:06.386Z,52.22
2023-04-27T05:12:33.152Z,52.12
2023-04-27T05:14:59.659Z,52.12
2023-04-27T05:17:26.563Z,52.40
2023-04-27T05:19:53.264Z,51.88
2023-04-27T05:22:19.967Z,51.81
2023-04-27T05:24:46.532Z,51.69
2023-04-27T05:27:14.709Z,52.77
2023-04-27T05:29:41.206Z,51.97
2023-04-27T05:32:07.920Z,51.64
2023-04-27T05:34:34.480Z,51.98
2023-04-27T05:37:01.360Z,52.38
2023-04-27T05:39:27.895Z,51.98
2023-04-27T05:41:54.494Z,51.38
2023-04-27T05:44:21.043Z,51.84
2023-04-27T05:46:47.529Z,51.72
2023-04-27T05:49:14.137Z,51.43
2023-04-27T05:51:41.329Z,51.55
2023-04-27T05:54:08.526Z,51.54
2023-04-27T05:56:35.103Z,51.53
2023-04-27T05:59:02.663Z,51.36
2023-04-27T06:01:29.471Z,51.38
2023-04-27T06:03:56.138Z,51.33
2023-04-27T06:06:22.795Z,51.59
2023-04-27T06:08:49.309Z,51.19
2023-04-27T06:11:16.397Z,50.77
2023-04-27T06:13:43.409Z,50.94
2023-04-27T06:16:09.976Z,50.65
2023-04-27T06:18:36.548Z,50.22
2023-04-27T06:21:03.577Z,50.34
2023-04-27T06:23:30.133Z,50.66
2023-04-27T06:25:57.138Z,50.34
2023-04-27T06:28:23.653Z,50.30
2023-04-27T06:30:50.147Z,49.54
2023-04-27T06:33:16.729Z,49.30
2023-04-27T06:35:45.737Z,49.52
2023-04-27T06:38:13.865Z,48.97
2023-04-27T06:40:40.390Z,49.60
2023-04-27T06:43:06.875Z,48.94
2023-04-27T06:45:33.362Z,48.82
2023-04-27T06:47:59.874Z,48.10
2023-04-27T06:50:26.703Z,47.57
2023-04-27T06:52:53.401Z,47.92
2023-04-27T06:55:20.041Z,49.32
2023-04-27T06:57:46.518Z,47.90
2023-04-27T07:00:13.567Z,48.51
2023-04-27T07:02:40.129Z,48.98
2023-04-27T07:05:06.855Z,49.14
2023-04-27T07:07:33.370Z,48.96
2023-04-27T07:09:59.854Z,48.45
2023-04-27T07:12:26.883Z,48.58
2023-04-27T07:14:53.390Z,48.52
2023-04-27T07:17:20.080Z,48.12
2023-04-27T07:19:46.737Z,48.38
2023-04-27T07:22:13.322Z,47.91
2023-04-27T07:24:39.866Z,48.09
2023-04-27T07:27:07.155Z,47.77
2023-04-27T07:29:34.009Z,47.17
2023-04-27T07:32:00.998Z,46.89
2023-04-27T07:34:32.848Z,48.07
2023-04-27T07:37:05.492Z,47.35
2023-04-27T07:39:32.005Z,47.20
2023-04-27T07:41:58.471Z,46.47
2023-04-27T07:44:24.981Z,47.32
2023-04-27T07:46:58.511Z,47.19
2023-04-27T07:49:26.182Z,47.81
2023-04-27T07:51:52.707Z,46.96
2023-04-27T07:54:19.225Z,46.27
2023-04-27T07:56:45.858Z,45.40
2023-04-27T07:59:12.951Z,47.88
2023-04-27T08:01:39.799Z,46.50
2023-04-27T08:04:06.682Z,49.07
2023-04-27T08:06:33.824Z,48.22
2023-04-27T08:09:01.983Z,46.51
2023-04-27T08:11:28.516Z,45.94
2023-04-27T08:13:54.978Z,47.60
2023-04-27T08:16:21.501Z,50.51
2023-04-27T08:18:49.504Z,49.30
2023-04-27T08:21:16.197Z,47.97
2023-04-27T08:23:43.794Z,46.38
2023-04-27T08:26:14.849Z,47.72
2023-04-27T08:28:41.312Z,45.70
2023-04-27T08:31:07.833Z,47.37
2023-04-27T08:33:34.392Z,44.94
2023-04-27T08:36:01.084Z,46.12
2023-04-27T08:38:27.665Z,46.88
2023-04-27T08:40:54.261Z,48.36
2023-04-27T08:43:20.812Z,45.74
2023-04-27T08:45:50.143Z,46.41
2023-04-27T08:48:16.813Z,43.74
2023-04-27T08:50:44.838Z,45.62
2023-04-27T08:53:21.458Z,44.68
2023-04-27T08:55:48.407Z,42.45
2023-04-27T08:58:14.896Z,41.46
2023-04-27T09:00:43.622Z,43.52
2023-04-27T09:03:26.039Z,43.79
2023-04-27T09:06:04.470Z,41.40
2023-04-27T09:08:46.381Z,43.88
2023-04-27T09:11:16.558Z,42.20
2023-04-27T09:13:45.258Z,45.44
2023-04-27T09:16:15.099Z,42.26
2023-04-27T09:18:43.512Z,44.29
2023-04-27T09:21:10.088Z,46.34
2023-04-27T09:23:38.609Z,44.69
2023-04-27T09:26:09.803Z,46.97
2023-04-27T09:28:40.302Z,43.87
2023-04-27T09:31:09.265Z,39.46
2023-04-27T09:33:36.663Z,39.24
2023-04-27T09:36:06.780Z,42.50
2023-04-27T09:38:33.485Z,43.52
2023-04-27T09:41:00.486Z,41.54
2023-04-27T09:43:28.795Z,40.12
2023-04-27T09:45:55.717Z,39.88
2023-04-27T09:48:23.872Z,39.20
2023-04-27T09:50:51.920Z,37.21
2023-04-27T09:53:26.443Z,35.62
2023-04-27T09:56:11.437Z,39.60
2023-04-27T09:59:07.672Z,36.55
2023-04-27T10:01:47.633Z,39.94
2023-04-27T10:04:42.832Z,38.39
2023-04-27T10:07:12.848Z,35.84
2023-04-27T10:09:45.183Z,37.39
2023-04-27T10:12:14.675Z,38.49
2023-04-27T10:14:51.984Z,37.75
2023-04-27T10:17:19.796Z,38.93
2023-04-27T10:19:56.666Z,38.55
2023-04-27T10:22:24.986Z,35.54
2023-04-27T10:24:52.156Z,37.84
2023-04-27T10:27:21.666Z,38.18
2023-04-27T10:29:49.614Z,37.39
2023-04-27T10:32:26.345Z,34.81
2023-04-27T10:35:05.164Z,37.80
2023-04-27T10:37:42.340Z,40.46
2023-04-27T10:40:19.300Z,41.84
2023-04-27T10:42:49.198Z,38.55
2023-04-27T10:45:28.458Z,39.19
2023-04-27T10:48:01.117Z,40.60
2023-04-27T10:50:28.088Z,36.95
2023-04-27T10:52:54.606Z,37.71
2023-04-27T10:55:22.347Z,38.52
2023-04-27T10:57:51.126Z,35.66
2023-04-27T11:00:35.155Z,38.49
2023-04-27T11:03:12.584Z,38.11
2023-04-27T11:05:40.425Z,36.85
2023-04-27T11:08:08.259Z,37.63
2023-04-27T11:10:35.896Z,37.38
2023-04-27T11:13:10.195Z,36.15
2023-04-27T11:15:47.620Z,37.84
2023-04-27T11:18:15.714Z,39.04
2023-04-27T11:20:48.588Z,35.78
2023-04-27T11:23:28.805Z,35.74
2023-04-27T11:25:56.425Z,35.62
2023-04-27T11:28:24.175Z,33.37
2023-04-27T11:31:00.750Z,35.29
2023-04-27T11:33:27.954Z,35.92
2023-04-27T11:35:54.546Z,34.06
2023-04-27T11:38:21.931Z,35.69
2023-04-27T11:41:01.592Z,33.53
2023-04-27T11:43:28.481Z,33.88
2023-04-27T11:45:56.153Z,33.66
2023-04-27T11:48:23.419Z,34.12
2023-04-27T11:50:50.820Z,35.79
2023-04-27T11:53:19.000Z,34.47
2023-04-27T11:55:52.546Z,34.85
2023-04-27T11:58:19.200Z,34.04
2023-04-27T12:00:47.524Z,33.24
2023-04-27T12:03:14.257Z,33.51
2023-04-27T12:05:49.331Z,35.42
2023-04-27T12:08:17.043Z,33.33
2023-04-27T12:10:44.343Z,32.91
2023-04-27T12:13:11.810Z,34.16
2023-04-27T12:15:39.036Z,34.99
2023-04-27T12:18:06.257Z,34.92
2023-04-27T12:20:33.992Z,35.64
2023-04-27T12:23:00.748Z,35.74
2023-04-27T12:25:27.248Z,36.41
2023-04-27T12:27:54.281Z,36.61
2023-04-27T12:30:23.158Z,36.38
2023-04-27T12:32:49.641Z,35.54
2023-04-27T12:35:16.209Z,35.88
2023-04-27T12:37:42.872Z,34.98
2023-04-27T12:40:10.016Z,35.28
2023-04-27T12:42:36.610Z,34.73
2023-04-27T12:45:04.549Z,34.29
2023-04-27T12:47:53.907Z,34.28
2023-04-27T12:50:18.571Z,33.17
2023-04-27T12:52:45.166Z,34.26
2023-04-27T12:55:24.817Z,34.58
2023-04-27T12:57:58.268Z,32.07
2023-04-27T13:00:25.278Z,31.87
2023-04-27T13:02:52.765Z,31.93
2023-04-27T13:05:19.904Z,34.52
2023-04-27T13:07:46.718Z,35.68
2023-04-27T13:10:13.225Z,34.21
2023-04-27T13:12:39.710Z,36.31
2023-04-27T13:15:07.804Z,34.88
2023-04-27T13:17:34.383Z,36.51
2023-04-27T13:20:01.036Z,36.61
2023-04-27T13:22:28.017Z,35.46
2023-04-27T13:24:54.873Z,34.75
2023-04-27T13:27:22.479Z,35.10
2023-04-27T13:29:51.164Z,33.67
2023-04-27T13:32:18.610Z,35.49
2023-04-27T13:34:45.425Z,32.73
2023-04-27T13:37:12.176Z,33.08
2023-04-27T13:39:38.696Z,32.39
2023-04-27T13:42:06.198Z,32.62
2023-04-27T13:44:32.860Z,33.31
2023-04-27T13:46:59.374Z,34.34
2023-04-27T13:49:25.976Z,34.12
2023-04-27T13:51:52.428Z,30.89
2023-04-27T13:54:18.946Z,32.33
2023-04-27T13:56:45.673Z,32.88
2023-04-27T13:59:12.475Z,31.21
2023-04-27T14:01:40.039Z,32.00
2023-04-27T14:04:06.787Z,33.52
2023-04-27T14:06:33.436Z,33.83
2023-04-27T14:08:59.915Z,32.76
2023-04-27T14:11:26.307Z,31.37
2023-04-27T14:13:52.741Z,33.64
2023-04-27T14:16:19.329Z,32.89
2023-04-27T14:18:45.913Z,33.51
2023-04-27T14:21:12.531Z,32.48
2023-04-27T14:23:38.943Z,31.62
2023-04-27T14:26:05.807Z,34.58
2023-04-27T14:28:32.351Z,32.99
2023-04-27T14:30:59.259Z,34.03
2023-04-27T14:33:25.936Z,31.64
2023-04-27T14:35:52.424Z,33.73
2023-04-27T14:38:18.895Z,32.64
2023-04-27T14:40:45.759Z,32.13
2023-04-27T14:43:12.255Z,34.93
2023-04-27T14:45:50.106Z,34.29
2023-04-27T14:48:18.164Z,34.19
2023-04-27T14:50:44.885Z,32.90
2023-04-27T14:53:11.344Z,33.44
2023-04-27T14:55:37.872Z,33.76
2023-04-27T14:58:04.369Z,34.12
2023-04-27T15:00:31.477Z,33.74
2023-04-27T15:02:58.026Z,32.80
2023-04-27T15:05:25.159Z,33.92
2023-04-27T15:07:51.654Z,33.31
2023-04-27T15:10:18.283Z,35.44
2023-04-27T15:12:45.485Z,36.39
2023-04-27T15:15:12.900Z,34.87
2023-04-27T15:17:39.625Z,34.21
2023-04-27T15:20:06.858Z,35.36
2023-04-27T15:22:33.506Z,33.14
2023-04-27T15:25:00.045Z,34.85
2023-04-27T15:27:26.532Z,35.86
2023-04-27T15:29:58.034Z,35.83
2023-04-27T15:32:29.786Z,34.20
2023-04-27T15:34:59.930Z,35.36
2023-04-27T15:37:28.092Z,33.36
2023-04-27T15:39:55.243Z,35.25
2023-04-27T15:42:21.799Z,33.97
2023-04-27T15:44:48.329Z,36.17
2023-04-27T15:47:15.319Z,35.01
2023-04-27T15:49:53.668Z,35.65
2023-04-27T15:52:23.055Z,32.77
2023-04-27T15:54:49.547Z,34.71
2023-04-27T15:57:16.157Z,35.66
2023-04-27T15:59:42.656Z,34.45
2023-04-27T16:02:09.356Z,34.91
2023-04-27T16:04:35.903Z,32.18
2023-04-27T16:07:02.515Z,33.12
2023-04-27T16:09:29.081Z,36.47
2023-04-27T16:11:55.815Z,36.81
2023-04-27T16:14:22.332Z,35.98
2023-04-27T16:16:48.831Z,32.25
2023-04-27T16:19:16.034Z,36.28
2023-04-27T16:21:42.761Z,34.09
2023-04-27T16:24:09.291Z,35.47
2023-04-27T16:26:35.736Z,35.60
2023-04-27T16:29:02.219Z,32.29
2023-04-27T16:31:28.927Z,33.84
2023-04-27T16:33:55.472Z,33.39
2023-04-27T16:36:22.040Z,34.87
2023-04-27T16:38:48.508Z,35.26
2023-04-27T16:41:15.001Z,32.62
2023-04-27T16:43:41.496Z,32.22
2023-04-27T16:46:09.977Z,32.79
2023-04-27T16:48:36.700Z,31.95
2023-04-27T16:51:03.803Z,31.85
2023-04-27T16:53:30.268Z,31.87
2023-04-27T16:55:59.502Z,34.91
2023-04-27T16:58:26.020Z,32.51
2023-04-27T17:00:52.567Z,35.05
2023-04-27T17:03:19.129Z,34.18
2023-04-27T17:05:45.816Z,33.93
2023-04-27T17:08:13.319Z,33.74
2023-04-27T17:10:39.881Z,35.41
2023-04-27T17:13:07.692Z,34.71
2023-04-27T17:15:34.267Z,34.21
2023-04-27T17:18:04.500Z,35.34
2023-04-27T17:20:31.211Z,34.93
2023-04-27T17:22:57.924Z,34.69
2023-04-27T17:25:24.485Z,34.86
2023-04-27T17:27:51.259Z,35.97
2023-04-27T17:30:17.782Z,35.39
2023-04-27T17:32:44.351Z,37.07
2023-04-27T17:35:11.571Z,37.46
2023-04-27T17:37:38.103Z,36.75
2023-04-27T17:40:07.868Z,37.81
2023-04-27T17:42:34.365Z,38.33
2023-04-27T17:45:01.043Z,38.63
2023-04-27T17:47:27.785Z,40.02
2023-04-27T17:49:54.498Z,40.58
2023-04-27T17:52:20.996Z,39.99
2023-04-27T17:54:48.405Z,39.72
2023-04-27T17:57:14.898Z,40.63
2023-04-27T17:59:41.488Z,40.12
2023-04-27T18:02:08.159Z,40.57
2023-04-27T18:04:34.996Z,40.70
2023-04-27T18:07:01.634Z,40.42
2023-04-27T18:09:29.428Z,41.24
2023-04-27T18:11:57.262Z,40.64
2023-04-27T18:14:23.757Z,41.42
2023-04-27T18:16:50.517Z,41.35
2023-04-27T18:19:17.456Z,42.27
2023-04-27T18:21:44.132Z,42.53
2023-04-27T18:24:10.639Z,42.36
2023-04-27T18:26:37.323Z,42.02
2023-04-27T18:29:03.944Z,42.51
2023-04-27T18:31:30.433Z,41.89
2023-04-27T18:33:56.985Z,41.68
2023-04-27T18:36:25.576Z,42.07
2023-04-27T18:38:52.195Z,42.76
2023-04-27T18:41:19.277Z,42.14
2023-04-27T18:43:45.941Z,41.74
2023-04-27T18:46:12.527Z,42.32
2023-04-27T18:48:39.074Z,41.84
2023-04-27T18:51:05.556Z,41.90
2023-04-27T18:53:32.092Z,41.38
2023-04-27T18:55:58.722Z,42.04
2023-04-27T18:58:25.289Z,42.05
2023-04-27T19:00:52.148Z,42.98
2023-04-27T19:03:19.202Z,42.35
2023-04-27T19:05:46.101Z,42.38
2023-04-27T19:08:12.875Z,42.59
2023-04-27T19:10:42.517Z,42.83
2023-04-27T19:13:09.121Z,42.47
2023-04-27T19:15:35.776Z,42.22
2023-04-27T19:18:10.665Z,42.64
2023-04-27T19:20:39.012Z,42.50
2023-04-27T19:23:05.839Z,43.37
2023-04-27T19:25:32.535Z,43.71
2023-04-27T19:27:59.270Z,43.77
2023-04-27T19:30:26.317Z,43.49
2023-04-27T19:32:52.909Z,43.85
2023-04-27T19:35:20.365Z,44.06
2023-04-27T19:37:46.895Z,43.47
2023-04-27T19:40:13.674Z,43.70
2023-04-27T19:42:40.353Z,43.76
2023-04-27T19:45:07.374Z,43.23
2023-04-27T19:47:33.997Z,44.63
2023-04-27T19:50:00.592Z,42.64
2023-04-27T19:52:27.195Z,44.23
2023-04-27T19:54:54.536Z,42.61
2023-04-27T19:57:21.610Z,41.90
2023-04-27T19:59:48.422Z,42.85
2023-04-27T20:02:15.400Z,43.34
2023-04-27T20:04:42.213Z,43.23
2023-04-27T20:07:09.625Z,42.49
2023-04-27T20:09:36.857Z,43.82
2023-04-27T20:12:04.195Z,44.25
2023-04-27T20:14:33.606Z,43.64
2023-04-27T20:17:00.549Z,44.69
2023-04-27T20:19:27.168Z,44.10
2023-04-27T20:21:54.177Z,45.78
2023-04-27T20:24:20.806Z,45.75
2023-04-27T20:26:47.427Z,45.65
2023-04-27T20:29:14.141Z,45.47
2023-04-27T20:31:41.103Z,45.24
2023-04-27T20:34:07.769Z,46.13
2023-04-27T20:36:34.323Z,44.73
2023-04-27T20:39:00.912Z,44.77
2023-04-27T20:41:27.890Z,44.10
2023-04-27T20:43:54.368Z,44.40
2023-04-27T20:46:21.034Z,45.19
2023-04-27T20:48:47.575Z,45.74
2023-04-27T20:51:14.106Z,44.01
2023-04-27T20:53:40.806Z,45.06
2023-04-27T20:56:07.366Z,44.54
2023-04-27T20:58:33.904Z,45.14
2023-04-27T21:01:00.460Z,45.10
2023-04-27T21:03:27.151Z,45.17
2023-04-27T21:05:54.234Z,45.38
2023-04-27T21:08:20.733Z,44.83
2023-04-27T21:10:47.252Z,45.54
2023-04-27T21:13:13.930Z,44.98
2023-04-27T21:15:40.732Z,45.95
2023-04-27T21:18:13.498Z,45.96
2023-04-27T21:20:45.654Z,45.10
2023-04-27T21:23:14.583Z,45.63
2023-04-27T21:25:45.185Z,46.42
2023-04-27T21:28:11.896Z,45.45
2023-04-27T21:30:38.442Z,46.19
2023-04-27T21:33:05.124Z,45.04
2023-04-27T21:35:31.922Z,45.51
2023-04-27T21:37:58.636Z,45.57
2023-04-27T21:40:25.159Z,46.63
2023-04-27T21:42:52.549Z,46.48
2023-04-27T21:45:19.327Z,46.27
2023-04-27T21:47:46.014Z,45.89
2023-04-27T21:50:12.873Z,46.24
2023-04-27T21:52:39.384Z,45.95
2023-04-27T21:55:06.004Z,46.37
2023-04-27T21:57:32.631Z,46.69
2023-04-27T21:59:59.561Z,46.59
2023-04-27T22:02:26.281Z,46.73
2023-04-27T22:04:53.053Z,46.78
2023-04-27T22:07:19.591Z,46.67
2023-04-27T22:09:46.312Z,46.44
2023-04-27T22:12:12.836Z,46.70
2023-04-27T22:14:39.373Z,46.92
2023-04-27T22:17:05.875Z,46.91
2023-04-27T22:19:32.372Z,46.85
2023-04-27T22:21:58.859Z,46.79
2023-04-27T22:24:25.460Z,46.55
2023-04-27T22:26:52.109Z,46.64
2023-04-27T22:29:18.608Z,47.16
2023-04-27T22:31:45.528Z,48.19
2023-04-27T22:34:12.904Z,48.31
2023-04-27T22:36:39.589Z,48.35
2023-04-27T22:39:07.152Z,47.16
2023-04-27T22:41:34.075Z,47.77
2023-04-27T22:44:00.669Z,47.77
2023-04-27T22:46:27.178Z,47.90
2023-04-27T22:48:53.940Z,48.25
2023-04-27T22:51:21.595Z,48.21
2023-04-27T22:53:48.752Z,48.44
2023-04-27T22:56:15.246Z,49.59
2023-04-27T22:58:41.724Z,48.65
2023-04-27T23:01:08.425Z,48.36
2023-04-27T23:03:35.289Z,48.91
2023-04-27T23:06:01.892Z,48.87
2023-04-27T23:08:28.926Z,49.29
2023-04-27T23:10:56.228Z,48.97
2023-04-27T23:13:26.670Z,49.30
2023-04-27T23:15:56.812Z,49.03
2023-04-27T23:18:23.711Z,49.69
2023-04-27T23:20:55.996Z,49.83
2023-04-27T23:23:22.502Z,49.86
2023-04-27T23:25:49.125Z,49.89
2023-04-27T23:28:15.730Z,50.09
2023-04-27T23:30:42.259Z,50.00
2023-04-27T23:33:08.781Z,49.39
2023-04-27T23:35:35.255Z,49.58
2023-04-27T23:38:01.779Z,49.65
2023-04-27T23:40:28.293Z,49.79
2023-04-27T23:42:55.718Z,49.95
2023-04-27T23:45:22.181Z,49.79
2023-04-27T23:47:48.685Z,48.71
2023-04-27T23:50:15.607Z,48.87
2023-04-27T23:52:42.634Z,48.34
2023-04-27T23:55:09.447Z,48.68
2023-04-27T23:57:36.115Z,49.21
